sensor_id;sensor_type;location;lat;lon;timestamp;temperature;humidity
4755;DHT22;2391;47.212;7.542;2023-11-19T00:00:53;8.80;99.90
4755;DHT22;2391;47.212;7.542;2023-11-19T00:03:19;8.80;99.90
4755;DHT22;2391;47.212;7.542;2023-11-19T00:05:46;8.80;99.90
4755;DHT22;2391;47.212;7.542;2023-11-19T00:08:11;8.80;99.90
4755;DHT22;2391;47.212;7.542;2023-11-19T00:10:37;8.80;99.90
4755;DHT22;2391;47.212;7.542;2023-11-19T00:13:03;8.80;99.90
4755;DHT22;2391;47.212;7.542;2023-11-19T00:15:29;8.80;99.90
4755;DHT22;2391;47.212;7.542;2023-11-19T00:17:54;8.80;99.90
4755;DHT22;2391;47.212;7.542;2023-11-19T00:20:21;8.80;99.90
4755;DHT22;2391;47.212;7.542;2023-11-19T00:22:49;8.80;99.90
4755;DHT22;2391;47.212;7.542;2023-11-19T00:25:19;8.80;99.90
4755;DHT22;2391;47.212;7.542;2023-11-19T00:27:45;8.80;99.90
4755;DHT22;2391;47.212;7.542;2023-11-19T00:30:11;8.80;99.90
4755;DHT22;2391;47.212;7.542;2023-11-19T00:32:36;8.80;99.90
4755;DHT22;2391;47.212;7.542;2023-11-19T00:35:05;8.80;99.90
4755;DHT22;2391;47.212;7.542;2023-11-19T00:37:31;8.80;99.90
4755;DHT22;2391;47.212;7.542;2023-11-19T00:39:57;8.80;99.90
4755;DHT22;2391;47.212;7.542;2023-11-19T00:42:23;8.80;99.90
4755;DHT22;2391;47.212;7.542;2023-11-19T00:44:50;8.90;99.90
4755;DHT22;2391;47.212;7.542;2023-11-19T00:47:16;8.90;99.90
4755;DHT22;2391;47.212;7.542;2023-11-19T00:49:42;8.90;99.90
4755;DHT22;2391;47.212;7.542;2023-11-19T00:52:08;8.90;99.90
4755;DHT22;2391;47.212;7.542;2023-11-19T00:54:34;8.80;99.90
4755;DHT22;2391;47.212;7.542;2023-11-19T00:57:00;8.90;99.90
4755;DHT22;2391;47.212;7.542;2023-11-19T00:59:27;8.90;99.90
4755;DHT22;2391;47.212;7.542;2023-11-19T01:01:54;9.00;99.90
4755;DHT22;2391;47.212;7.542;2023-11-19T01:04:19;9.00;99.90
4755;DHT22;2391;47.212;7.542;2023-11-19T01:06:45;8.90;99.90
4755;DHT22;2391;47.212;7.542;2023-11-19T01:09:11;8.90;99.90
4755;DHT22;2391;47.212;7.542;2023-11-19T01:11:37;8.90;99.90
4755;DHT22;2391;47.212;7.542;2023-11-19T01:14:02;8.80;99.90
4755;DHT22;2391;47.212;7.542;2023-11-19T01:16:28;8.90;99.90
4755;DHT22;2391;47.212;7.542;2023-11-19T01:18:54;8.80;99.90
4755;DHT22;2391;47.212;7.542;2023-11-19T01:21:20;8.80;99.90
4755;DHT22;2391;47.212;7.542;2023-11-19T01:23:47;8.80;99.90
4755;DHT22;2391;47.212;7.542;2023-11-19T01:26:13;8.80;99.90
4755;DHT22;2391;47.212;7.542;2023-11-19T01:28:39;8.90;99.90
4755;DHT22;2391;47.212;7.542;2023-11-19T01:31:07;8.90;99.90
4755;DHT22;2391;47.212;7.542;2023-11-19T01:33:36;8.90;99.90
4755;DHT22;2391;47.212;7.542;2023-11-19T01:36:02;8.90;99.90
4755;DHT22;2391;47.212;7.542;2023-11-19T01:38:30;9.00;99.90
4755;DHT22;2391;47.212;7.542;2023-11-19T01:40:57;9.10;99.90
4755;DHT22;2391;47.212;7.542;2023-11-19T01:43:36;9.20;99.90
4755;DHT22;2391;47.212;7.542;2023-11-19T01:46:02;9.20;99.90
4755;DHT22;2391;47.212;7.542;2023-11-19T01:48:29;9.30;99.90
4755;DHT22;2391;47.212;7.542;2023-11-19T01:50:57;9.40;99.90
4755;DHT22;2391;47.212;7.542;2023-11-19T01:53:23;9.40;99.90
4755;DHT22;2391;47.212;7.542;2023-11-19T01:55:49;9.50;99.90
4755;DHT22;2391;47.212;7.542;2023-11-19T01:58:16;9.50;99.90
4755;DHT22;2391;47.212;7.542;2023-11-19T02:00:44;9.50;99.90
4755;DHT22;2391;47.212;7.542;2023-11-19T02:03:10;9.50;99.90
4755;DHT22;2391;47.212;7.542;2023-11-19T02:05:38;9.50;99.90
4755;DHT22;2391;47.212;7.542;2023-11-19T02:08:04;9.50;99.90
4755;DHT22;2391;47.212;7.542;2023-11-19T02:10:30;9.50;99.90
4755;DHT22;2391;47.212;7.542;2023-11-19T02:12:58;9.40;99.90
4755;DHT22;2391;47.212;7.542;2023-11-19T02:15:24;9.50;99.90
4755;DHT22;2391;47.212;7.542;2023-11-19T02:17:50;9.40;99.90
4755;DHT22;2391;47.212;7.542;2023-11-19T02:20:17;9.40;99.90
4755;DHT22;2391;47.212;7.542;2023-11-19T02:22:47;9.50;99.90
4755;DHT22;2391;47.212;7.542;2023-11-19T02:25:23;9.50;99.90
4755;DHT22;2391;47.212;7.542;2023-11-19T02:28:02;9.60;99.90
4755;DHT22;2391;47.212;7.542;2023-11-19T02:30:28;9.60;99.90
4755;DHT22;2391;47.212;7.542;2023-11-19T02:32:58;9.70;99.90
4755;DHT22;2391;47.212;7.542;2023-11-19T02:35:27;9.70;99.90
4755;DHT22;2391;47.212;7.542;2023-11-19T02:37:58;9.70;99.90
4755;DHT22;2391;47.212;7.542;2023-11-19T02:40:29;9.70;99.90
4755;DHT22;2391;47.212;7.542;2023-11-19T02:42:55;9.70;99.90
4755;DHT22;2391;47.212;7.542;2023-11-19T02:45:25;9.70;99.90
4755;DHT22;2391;47.212;7.542;2023-11-19T02:47:52;9.80;99.90
4755;DHT22;2391;47.212;7.542;2023-11-19T02:50:19;9.80;99.90
4755;DHT22;2391;47.212;7.542;2023-11-19T02:52:47;9.80;99.90
4755;DHT22;2391;47.212;7.542;2023-11-19T02:55:13;9.90;99.90
4755;DHT22;2391;47.212;7.542;2023-11-19T02:57:40;9.90;99.90
4755;DHT22;2391;47.212;7.542;2023-11-19T03:00:13;9.80;99.90
4755;DHT22;2391;47.212;7.542;2023-11-19T03:02:42;9.90;99.90
4755;DHT22;2391;47.212;7.542;2023-11-19T03:05:14;9.90;99.90
4755;DHT22;2391;47.212;7.542;2023-11-19T03:07:41;9.80;99.90
4755;DHT22;2391;47.212;7.542;2023-11-19T03:10:10;9.80;99.90
4755;DHT22;2391;47.212;7.542;2023-11-19T03:12:44;9.80;99.90
4755;DHT22;2391;47.212;7.542;2023-11-19T03:15:11;9.80;99.90
4755;DHT22;2391;47.212;7.542;2023-11-19T03:17:40;9.80;99.90
4755;DHT22;2391;47.212;7.542;2023-11-19T03:20:08;9.90;99.90
4755;DHT22;2391;47.212;7.542;2023-11-19T03:22:38;9.90;99.90
4755;DHT22;2391;47.212;7.542;2023-11-19T03:25:04;10.00;99.90
4755;DHT22;2391;47.212;7.542;2023-11-19T03:27:30;10.20;99.90
4755;DHT22;2391;47.212;7.542;2023-11-19T03:29:56;10.20;99.90
4755;DHT22;2391;47.212;7.542;2023-11-19T03:32:21;10.20;99.90
4755;DHT22;2391;47.212;7.542;2023-11-19T03:34:47;10.30;99.90
4755;DHT22;2391;47.212;7.542;2023-11-19T03:37:13;10.40;99.90
4755;DHT22;2391;47.212;7.542;2023-11-19T03:39:40;10.40;99.90
4755;DHT22;2391;47.212;7.542;2023-11-19T03:42:06;10.50;99.90
4755;DHT22;2391;47.212;7.542;2023-11-19T03:44:32;10.50;99.90
4755;DHT22;2391;47.212;7.542;2023-11-19T03:46:58;10.50;99.90
4755;DHT22;2391;47.212;7.542;2023-11-19T03:49:23;10.50;99.90
4755;DHT22;2391;47.212;7.542;2023-11-19T03:51:49;10.50;99.90
4755;DHT22;2391;47.212;7.542;2023-11-19T03:54:15;10.40;99.90
4755;DHT22;2391;47.212;7.542;2023-11-19T03:56:41;10.40;99.90
4755;DHT22;2391;47.212;7.542;2023-11-19T03:59:07;10.40;99.90
4755;DHT22;2391;47.212;7.542;2023-11-19T04:01:33;10.40;99.90
4755;DHT22;2391;47.212;7.542;2023-11-19T04:03:59;10.40;99.90
4755;DHT22;2391;47.212;7.542;2023-11-19T04:06:25;10.30;99.90
4755;DHT22;2391;47.212;7.542;2023-11-19T04:08:51;10.30;99.90
4755;DHT22;2391;47.212;7.542;2023-11-19T04:11:17;10.40;99.90
4755;DHT22;2391;47.212;7.542;2023-11-19T04:13:43;10.50;99.90
4755;DHT22;2391;47.212;7.542;2023-11-19T04:16:09;10.50;99.90
4755;DHT22;2391;47.212;7.542;2023-11-19T04:18:35;10.60;99.90
4755;DHT22;2391;47.212;7.542;2023-11-19T04:21:01;10.60;99.90
4755;DHT22;2391;47.212;7.542;2023-11-19T04:23:27;10.60;99.90
4755;DHT22;2391;47.212;7.542;2023-11-19T04:25:52;10.60;99.90
4755;DHT22;2391;47.212;7.542;2023-11-19T04:28:18;10.50;99.90
4755;DHT22;2391;47.212;7.542;2023-11-19T04:30:44;10.40;99.90
4755;DHT22;2391;47.212;7.542;2023-11-19T04:33:10;10.40;99.90
4755;DHT22;2391;47.212;7.542;2023-11-19T04:35:35;10.40;99.90
4755;DHT22;2391;47.212;7.542;2023-11-19T04:38:02;10.30;99.90
4755;DHT22;2391;47.212;7.542;2023-11-19T04:40:27;10.20;99.90
4755;DHT22;2391;47.212;7.542;2023-11-19T04:42:53;10.20;99.90
4755;DHT22;2391;47.212;7.542;2023-11-19T04:45:19;10.30;99.90
4755;DHT22;2391;47.212;7.542;2023-11-19T04:47:46;10.30;99.90
4755;DHT22;2391;47.212;7.542;2023-11-19T04:50:11;10.40;99.90
4755;DHT22;2391;47.212;7.542;2023-11-19T04:52:38;10.40;99.90
4755;DHT22;2391;47.212;7.542;2023-11-19T04:55:06;10.50;99.90
4755;DHT22;2391;47.212;7.542;2023-11-19T04:57:32;10.50;99.90
4755;DHT22;2391;47.212;7.542;2023-11-19T04:59:58;10.60;99.90
4755;DHT22;2391;47.212;7.542;2023-11-19T05:02:24;10.60;99.90
4755;DHT22;2391;47.212;7.542;2023-11-19T05:04:50;10.60;99.90
4755;DHT22;2391;47.212;7.542;2023-11-19T05:07:16;10.60;99.90
4755;DHT22;2391;47.212;7.542;2023-11-19T05:09:41;10.60;99.90
4755;DHT22;2391;47.212;7.542;2023-11-19T05:12:08;10.60;99.90
4755;DHT22;2391;47.212;7.542;2023-11-19T05:14:36;10.60;99.90
4755;DHT22;2391;47.212;7.542;2023-11-19T05:17:01;10.60;99.90
4755;DHT22;2391;47.212;7.542;2023-11-19T05:19:27;10.70;99.90
4755;DHT22;2391;47.212;7.542;2023-11-19T05:21:53;10.70;99.90
4755;DHT22;2391;47.212;7.542;2023-11-19T05:24:19;10.70;99.90
4755;DHT22;2391;47.212;7.542;2023-11-19T05:26:44;10.70;99.90
4755;DHT22;2391;47.212;7.542;2023-11-19T05:29:10;10.70;99.90
4755;DHT22;2391;47.212;7.542;2023-11-19T05:31:36;10.70;99.90
4755;DHT22;2391;47.212;7.542;2023-11-19T05:34:01;10.80;99.90
4755;DHT22;2391;47.212;7.542;2023-11-19T05:36:27;10.80;99.90
4755;DHT22;2391;47.212;7.542;2023-11-19T05:38:54;10.80;99.90
4755;DHT22;2391;47.212;7.542;2023-11-19T05:41:20;10.80;99.90
4755;DHT22;2391;47.212;7.542;2023-11-19T05:43:46;10.80;99.90
4755;DHT22;2391;47.212;7.542;2023-11-19T05:46:12;10.80;99.90
4755;DHT22;2391;47.212;7.542;2023-11-19T05:48:38;10.80;99.90
4755;DHT22;2391;47.212;7.542;2023-11-19T05:51:04;10.80;99.90
4755;DHT22;2391;47.212;7.542;2023-11-19T05:53:31;10.80;99.90
4755;DHT22;2391;47.212;7.542;2023-11-19T05:55:57;10.80;99.90
4755;DHT22;2391;47.212;7.542;2023-11-19T05:58:24;10.80;99.90
4755;DHT22;2391;47.212;7.542;2023-11-19T06:00:52;10.80;99.90
4755;DHT22;2391;47.212;7.542;2023-11-19T06:03:18;10.90;99.90
4755;DHT22;2391;47.212;7.542;2023-11-19T06:05:47;10.90;99.90
4755;DHT22;2391;47.212;7.542;2023-11-19T06:08:13;10.90;99.90
4755;DHT22;2391;47.212;7.542;2023-11-19T06:10:40;11.00;99.90
4755;DHT22;2391;47.212;7.542;2023-11-19T06:13:05;11.10;99.90
4755;DHT22;2391;47.212;7.542;2023-11-19T06:15:33;11.10;99.90
4755;DHT22;2391;47.212;7.542;2023-11-19T06:17:59;11.10;99.90
4755;DHT22;2391;47.212;7.542;2023-11-19T06:20:31;11.00;99.90
4755;DHT22;2391;47.212;7.542;2023-11-19T06:22:57;11.00;99.90
4755;DHT22;2391;47.212;7.542;2023-11-19T06:25:23;11.10;99.90
4755;DHT22;2391;47.212;7.542;2023-11-19T06:27:50;11.10;99.90
4755;DHT22;2391;47.212;7.542;2023-11-19T06:30:16;11.10;99.90
4755;DHT22;2391;47.212;7.542;2023-11-19T06:32:42;11.20;99.90
4755;DHT22;2391;47.212;7.542;2023-11-19T06:35:08;11.20;99.90
4755;DHT22;2391;47.212;7.542;2023-11-19T06:37:36;11.30;99.90
4755;DHT22;2391;47.212;7.542;2023-11-19T06:40:02;11.30;99.90
4755;DHT22;2391;47.212;7.542;2023-11-19T06:42:30;11.20;99.90
4755;DHT22;2391;47.212;7.542;2023-11-19T06:44:56;11.20;99.90
4755;DHT22;2391;47.212;7.542;2023-11-19T06:47:26;11.10;99.90
4755;DHT22;2391;47.212;7.542;2023-11-19T06:49:54;11.10;99.90
4755;DHT22;2391;47.212;7.542;2023-11-19T06:52:20;11.00;99.90
4755;DHT22;2391;47.212;7.542;2023-11-19T06:54:45;10.90;99.90
4755;DHT22;2391;47.212;7.542;2023-11-19T06:57:12;11.00;99.90
4755;DHT22;2391;47.212;7.542;2023-11-19T06:59:38;11.00;99.90
4755;DHT22;2391;47.212;7.542;2023-11-19T07:02:04;11.10;99.90
4755;DHT22;2391;47.212;7.542;2023-11-19T07:04:30;11.10;99.90
4755;DHT22;2391;47.212;7.542;2023-11-19T07:06:57;11.20;99.90
4755;DHT22;2391;47.212;7.542;2023-11-19T07:09:22;11.20;99.90
4755;DHT22;2391;47.212;7.542;2023-11-19T07:11:48;11.20;99.90
4755;DHT22;2391;47.212;7.542;2023-11-19T07:14:16;11.20;99.90
4755;DHT22;2391;47.212;7.542;2023-11-19T07:16:42;11.20;99.90
4755;DHT22;2391;47.212;7.542;2023-11-19T07:19:08;11.20;99.90
4755;DHT22;2391;47.212;7.542;2023-11-19T07:21:34;11.20;99.90
4755;DHT22;2391;47.212;7.542;2023-11-19T07:24:02;11.20;99.90
4755;DHT22;2391;47.212;7.542;2023-11-19T07:26:28;11.20;99.90
4755;DHT22;2391;47.212;7.542;2023-11-19T07:28:54;11.20;99.90
4755;DHT22;2391;47.212;7.542;2023-11-19T07:31:21;11.20;99.90
4755;DHT22;2391;47.212;7.542;2023-11-19T07:33:47;11.20;99.90
4755;DHT22;2391;47.212;7.542;2023-11-19T07:36:13;11.30;99.90
4755;DHT22;2391;47.212;7.542;2023-11-19T07:38:39;11.30;99.90
4755;DHT22;2391;47.212;7.542;2023-11-19T07:41:06;11.40;99.90
4755;DHT22;2391;47.212;7.542;2023-11-19T07:43:32;11.40;99.90
4755;DHT22;2391;47.212;7.542;2023-11-19T07:45:59;11.40;99.90
4755;DHT22;2391;47.212;7.542;2023-11-19T07:48:25;11.40;99.90
4755;DHT22;2391;47.212;7.542;2023-11-19T07:50:52;11.50;99.90
4755;DHT22;2391;47.212;7.542;2023-11-19T07:53:19;11.50;99.90
4755;DHT22;2391;47.212;7.542;2023-11-19T07:55:45;11.60;99.90
4755;DHT22;2391;47.212;7.542;2023-11-19T07:58:11;11.50;99.90
4755;DHT22;2391;47.212;7.542;2023-11-19T08:00:38;11.50;99.90
4755;DHT22;2391;47.212;7.542;2023-11-19T08:03:04;11.60;99.90
4755;DHT22;2391;47.212;7.542;2023-11-19T08:05:33;11.60;99.90
4755;DHT22;2391;47.212;7.542;2023-11-19T08:07:58;11.60;99.90
4755;DHT22;2391;47.212;7.542;2023-11-19T08:10:24;11.70;99.90
4755;DHT22;2391;47.212;7.542;2023-11-19T08:12:50;11.70;99.90
4755;DHT22;2391;47.212;7.542;2023-11-19T08:15:15;11.70;99.90
4755;DHT22;2391;47.212;7.542;2023-11-19T08:17:42;11.60;99.90
4755;DHT22;2391;47.212;7.542;2023-11-19T08:20:11;11.70;99.90
4755;DHT22;2391;47.212;7.542;2023-11-19T08:22:37;11.70;99.90
4755;DHT22;2391;47.212;7.542;2023-11-19T08:25:05;11.80;99.90
4755;DHT22;2391;47.212;7.542;2023-11-19T08:27:31;11.70;99.90
4755;DHT22;2391;47.212;7.542;2023-11-19T08:29:57;11.70;99.90
4755;DHT22;2391;47.212;7.542;2023-11-19T08:32:27;11.70;99.90
4755;DHT22;2391;47.212;7.542;2023-11-19T08:34:53;11.70;99.90
4755;DHT22;2391;47.212;7.542;2023-11-19T08:37:19;11.80;99.90
4755;DHT22;2391;47.212;7.542;2023-11-19T08:39:49;11.80;99.90
4755;DHT22;2391;47.212;7.542;2023-11-19T08:42:18;11.80;99.90
4755;DHT22;2391;47.212;7.542;2023-11-19T08:44:48;11.90;99.90
4755;DHT22;2391;47.212;7.542;2023-11-19T08:47:16;11.90;99.90
4755;DHT22;2391;47.212;7.542;2023-11-19T08:49:45;11.90;99.90
4755;DHT22;2391;47.212;7.542;2023-11-19T08:52:11;11.90;99.90
4755;DHT22;2391;47.212;7.542;2023-11-19T08:54:37;11.90;99.90
4755;DHT22;2391;47.212;7.542;2023-11-19T08:57:03;12.00;99.90
4755;DHT22;2391;47.212;7.542;2023-11-19T08:59:30;12.00;99.90
4755;DHT22;2391;47.212;7.542;2023-11-19T09:01:55;12.10;99.90
4755;DHT22;2391;47.212;7.542;2023-11-19T09:04:21;12.20;99.90
4755;DHT22;2391;47.212;7.542;2023-11-19T09:06:50;12.20;99.90
4755;DHT22;2391;47.212;7.542;2023-11-19T09:09:15;12.20;99.90
4755;DHT22;2391;47.212;7.542;2023-11-19T09:11:41;12.20;99.90
4755;DHT22;2391;47.212;7.542;2023-11-19T09:14:07;12.10;99.90
4755;DHT22;2391;47.212;7.542;2023-11-19T09:16:33;12.10;99.90
4755;DHT22;2391;47.212;7.542;2023-11-19T09:19:00;12.10;99.90
4755;DHT22;2391;47.212;7.542;2023-11-19T09:21:28;12.10;99.90
4755;DHT22;2391;47.212;7.542;2023-11-19T09:23:55;12.10;99.90
4755;DHT22;2391;47.212;7.542;2023-11-19T09:26:21;12.10;99.90
4755;DHT22;2391;47.212;7.542;2023-11-19T09:28:46;12.10;99.90
4755;DHT22;2391;47.212;7.542;2023-11-19T09:31:16;12.10;99.90
4755;DHT22;2391;47.212;7.542;2023-11-19T09:33:43;12.10;99.90
4755;DHT22;2391;47.212;7.542;2023-11-19T09:36:10;12.10;99.90
4755;DHT22;2391;47.212;7.542;2023-11-19T09:38:40;12.10;99.90
4755;DHT22;2391;47.212;7.542;2023-11-19T09:41:06;12.10;99.90
4755;DHT22;2391;47.212;7.542;2023-11-19T09:43:36;12.20;99.90
4755;DHT22;2391;47.212;7.542;2023-11-19T09:46:04;12.20;99.90
4755;DHT22;2391;47.212;7.542;2023-11-19T09:48:33;12.20;99.90
4755;DHT22;2391;47.212;7.542;2023-11-19T09:51:01;12.20;99.90
4755;DHT22;2391;47.212;7.542;2023-11-19T09:53:28;12.20;99.90
4755;DHT22;2391;47.212;7.542;2023-11-19T09:55:55;12.20;99.90
4755;DHT22;2391;47.212;7.542;2023-11-19T09:58:21;12.20;99.90
4755;DHT22;2391;47.212;7.542;2023-11-19T10:00:49;12.30;99.90
4755;DHT22;2391;47.212;7.542;2023-11-19T10:03:16;12.30;99.90
4755;DHT22;2391;47.212;7.542;2023-11-19T10:05:42;12.40;99.90
4755;DHT22;2391;47.212;7.542;2023-11-19T10:08:08;12.40;99.90
4755;DHT22;2391;47.212;7.542;2023-11-19T10:10:35;12.40;99.90
4755;DHT22;2391;47.212;7.542;2023-11-19T10:13:00;12.50;99.90
4755;DHT22;2391;47.212;7.542;2023-11-19T10:15:26;12.50;99.90
4755;DHT22;2391;47.212;7.542;2023-11-19T10:17:56;12.60;99.90
4755;DHT22;2391;47.212;7.542;2023-11-19T10:20:22;12.60;99.90
4755;DHT22;2391;47.212;7.542;2023-11-19T10:22:55;12.70;99.90
4755;DHT22;2391;47.212;7.542;2023-11-19T10:25:22;12.80;99.90
4755;DHT22;2391;47.212;7.542;2023-11-19T10:27:54;12.80;99.90
4755;DHT22;2391;47.212;7.542;2023-11-19T10:30:23;12.90;99.90
4755;DHT22;2391;47.212;7.542;2023-11-19T10:32:45;13.00;99.90
4755;DHT22;2391;47.212;7.542;2023-11-19T10:35:11;13.10;99.90
4755;DHT22;2391;47.212;7.542;2023-11-19T10:37:39;13.20;99.90
4755;DHT22;2391;47.212;7.542;2023-11-19T10:40:05;13.20;99.90
4755;DHT22;2391;47.212;7.542;2023-11-19T10:42:31;13.30;99.90
4755;DHT22;2391;47.212;7.542;2023-11-19T10:44:57;13.30;99.90
4755;DHT22;2391;47.212;7.542;2023-11-19T10:47:23;13.30;99.90
4755;DHT22;2391;47.212;7.542;2023-11-19T10:49:49;13.40;99.90
4755;DHT22;2391;47.212;7.542;2023-11-19T10:52:18;13.50;99.90
4755;DHT22;2391;47.212;7.542;2023-11-19T10:54:49;13.50;99.90
4755;DHT22;2391;47.212;7.542;2023-11-19T10:57:21;13.50;99.90
4755;DHT22;2391;47.212;7.542;2023-11-19T10:59:47;13.50;99.90
4755;DHT22;2391;47.212;7.542;2023-11-19T11:02:18;13.50;99.90
4755;DHT22;2391;47.212;7.542;2023-11-19T11:04:46;13.50;99.90
4755;DHT22;2391;47.212;7.542;2023-11-19T11:07:14;13.50;99.90
4755;DHT22;2391;47.212;7.542;2023-11-19T11:09:41;13.60;99.90
4755;DHT22;2391;47.212;7.542;2023-11-19T11:12:09;13.60;99.90
4755;DHT22;2391;47.212;7.542;2023-11-19T11:14:37;13.60;99.90
4755;DHT22;2391;47.212;7.542;2023-11-19T11:17:04;13.60;99.90
4755;DHT22;2391;47.212;7.542;2023-11-19T11:19:32;13.50;99.90
4755;DHT22;2391;47.212;7.542;2023-11-19T11:21:58;13.50;99.90
4755;DHT22;2391;47.212;7.542;2023-11-19T11:27:23;13.60;99.90
4755;DHT22;2391;47.212;7.542;2023-11-19T11:32:43;13.60;99.90
4755;DHT22;2391;47.212;7.542;2023-11-19T11:35:30;13.50;99.90
4755;DHT22;2391;47.212;7.542;2023-11-19T11:38:00;13.40;99.90
4755;DHT22;2391;47.212;7.542;2023-11-19T11:40:27;13.50;99.90
4755;DHT22;2391;47.212;7.542;2023-11-19T11:42:52;13.50;99.90
4755;DHT22;2391;47.212;7.542;2023-11-19T11:45:19;13.60;99.90
4755;DHT22;2391;47.212;7.542;2023-11-19T11:50:24;13.60;99.90
4755;DHT22;2391;47.212;7.542;2023-11-19T11:55:35;13.70;99.90
4755;DHT22;2391;47.212;7.542;2023-11-19T11:58:06;13.70;99.90
4755;DHT22;2391;47.212;7.542;2023-11-19T12:00:36;13.70;99.90
4755;DHT22;2391;47.212;7.542;2023-11-19T12:03:04;13.70;99.90
4755;DHT22;2391;47.212;7.542;2023-11-19T12:05:31;13.60;99.90
4755;DHT22;2391;47.212;7.542;2023-11-19T12:08:04;13.60;99.90
4755;DHT22;2391;47.212;7.542;2023-11-19T12:10:41;13.60;99.90
4755;DHT22;2391;47.212;7.542;2023-11-19T12:13:06;13.50;99.90
4755;DHT22;2391;47.212;7.542;2023-11-19T12:18:28;13.50;99.90
4755;DHT22;2391;47.212;7.542;2023-11-19T12:20:55;13.40;99.90
4755;DHT22;2391;47.212;7.542;2023-11-19T12:23:26;13.40;99.90
4755;DHT22;2391;47.212;7.542;2023-11-19T12:25:49;13.40;99.90
4755;DHT22;2391;47.212;7.542;2023-11-19T12:28:17;13.40;99.90
4755;DHT22;2391;47.212;7.542;2023-11-19T12:30:44;13.40;99.90
4755;DHT22;2391;47.212;7.542;2023-11-19T12:33:11;13.40;99.90
4755;DHT22;2391;47.212;7.542;2023-11-19T12:35:44;13.50;99.90
4755;DHT22;2391;47.212;7.542;2023-11-19T12:38:19;13.50;99.90
4755;DHT22;2391;47.212;7.542;2023-11-19T12:40:47;13.50;99.90
4755;DHT22;2391;47.212;7.542;2023-11-19T12:43:21;13.50;99.90
4755;DHT22;2391;47.212;7.542;2023-11-19T12:45:50;13.40;99.90
4755;DHT22;2391;47.212;7.542;2023-11-19T12:48:16;13.40;99.90
4755;DHT22;2391;47.212;7.542;2023-11-19T12:50:56;13.50;99.90
4755;DHT22;2391;47.212;7.542;2023-11-19T12:53:23;13.50;99.90
4755;DHT22;2391;47.212;7.542;2023-11-19T12:55:51;13.50;99.90
4755;DHT22;2391;47.212;7.542;2023-11-19T13:01:03;13.50;99.90
4755;DHT22;2391;47.212;7.542;2023-11-19T13:03:32;13.50;99.90
4755;DHT22;2391;47.212;7.542;2023-11-19T13:06:10;13.50;99.90
4755;DHT22;2391;47.212;7.542;2023-11-19T13:08:46;13.50;99.90
4755;DHT22;2391;47.212;7.542;2023-11-19T13:11:30;13.50;99.90
4755;DHT22;2391;47.212;7.542;2023-11-19T13:13:59;13.50;99.90
4755;DHT22;2391;47.212;7.542;2023-11-19T13:16:26;13.40;99.90
4755;DHT22;2391;47.212;7.542;2023-11-19T13:18:53;13.40;99.90
4755;DHT22;2391;47.212;7.542;2023-11-19T13:21:19;13.30;99.90
4755;DHT22;2391;47.212;7.542;2023-11-19T13:23:44;13.30;99.90
4755;DHT22;2391;47.212;7.542;2023-11-19T13:26:11;13.30;99.90
4755;DHT22;2391;47.212;7.542;2023-11-19T13:28:38;13.30;99.90
4755;DHT22;2391;47.212;7.542;2023-11-19T13:31:04;13.40;99.90
4755;DHT22;2391;47.212;7.542;2023-11-19T13:33:30;13.40;99.90
4755;DHT22;2391;47.212;7.542;2023-11-19T13:35:56;13.50;99.90
4755;DHT22;2391;47.212;7.542;2023-11-19T13:38:22;13.40;99.90
4755;DHT22;2391;47.212;7.542;2023-11-19T13:40:51;13.40;99.90
4755;DHT22;2391;47.212;7.542;2023-11-19T13:43:17;13.40;99.90
4755;DHT22;2391;47.212;7.542;2023-11-19T13:45:43;13.50;99.90
4755;DHT22;2391;47.212;7.542;2023-11-19T13:48:08;13.50;99.90
4755;DHT22;2391;47.212;7.542;2023-11-19T13:50:35;13.50;99.90
4755;DHT22;2391;47.212;7.542;2023-11-19T13:53:01;13.50;99.90
4755;DHT22;2391;47.212;7.542;2023-11-19T13:55:26;13.60;99.90
4755;DHT22;2391;47.212;7.542;2023-11-19T13:57:52;13.60;99.90
4755;DHT22;2391;47.212;7.542;2023-11-19T14:00:18;13.60;99.90
4755;DHT22;2391;47.212;7.542;2023-11-19T14:02:49;13.60;99.90
4755;DHT22;2391;47.212;7.542;2023-11-19T14:05:15;13.60;99.90
4755;DHT22;2391;47.212;7.542;2023-11-19T14:07:45;13.70;99.90
4755;DHT22;2391;47.212;7.542;2023-11-19T14:10:12;13.80;99.90
4755;DHT22;2391;47.212;7.542;2023-11-19T14:12:38;13.80;99.90
4755;DHT22;2391;47.212;7.542;2023-11-19T14:15:10;13.90;99.90
4755;DHT22;2391;47.212;7.542;2023-11-19T14:17:33;13.90;99.90
4755;DHT22;2391;47.212;7.542;2023-11-19T14:20:00;13.80;99.90
4755;DHT22;2391;47.212;7.542;2023-11-19T14:22:26;13.80;99.90
4755;DHT22;2391;47.212;7.542;2023-11-19T14:24:51;13.80;99.90
4755;DHT22;2391;47.212;7.542;2023-11-19T14:27:17;13.70;99.90
4755;DHT22;2391;47.212;7.542;2023-11-19T14:29:43;13.70;99.90
4755;DHT22;2391;47.212;7.542;2023-11-19T14:32:11;13.70;99.90
4755;DHT22;2391;47.212;7.542;2023-11-19T14:34:37;13.60;99.90
4755;DHT22;2391;47.212;7.542;2023-11-19T14:37:03;13.60;99.90
4755;DHT22;2391;47.212;7.542;2023-11-19T14:39:28;13.60;99.90
4755;DHT22;2391;47.212;7.542;2023-11-19T14:41:57;13.60;99.90
4755;DHT22;2391;47.212;7.542;2023-11-19T14:44:25;13.60;99.90
4755;DHT22;2391;47.212;7.542;2023-11-19T14:46:51;13.70;99.90
4755;DHT22;2391;47.212;7.542;2023-11-19T14:49:16;13.70;99.90
4755;DHT22;2391;47.212;7.542;2023-11-19T14:51:42;13.70;99.90
4755;DHT22;2391;47.212;7.542;2023-11-19T14:54:08;13.70;99.90
4755;DHT22;2391;47.212;7.542;2023-11-19T14:56:33;13.80;99.90
4755;DHT22;2391;47.212;7.542;2023-11-19T14:58:59;13.80;99.90
4755;DHT22;2391;47.212;7.542;2023-11-19T15:01:25;13.80;99.90
4755;DHT22;2391;47.212;7.542;2023-11-19T15:03:51;13.80;99.90
4755;DHT22;2391;47.212;7.542;2023-11-19T15:06:16;13.80;99.90
4755;DHT22;2391;47.212;7.542;2023-11-19T15:08:42;13.80;99.90
4755;DHT22;2391;47.212;7.542;2023-11-19T15:11:10;13.80;99.90
4755;DHT22;2391;47.212;7.542;2023-11-19T15:13:37;13.80;99.90
4755;DHT22;2391;47.212;7.542;2023-11-19T15:16:04;13.80;99.90
4755;DHT22;2391;47.212;7.542;2023-11-19T15:18:32;13.70;99.90
4755;DHT22;2391;47.212;7.542;2023-11-19T15:20:58;13.70;99.90
4755;DHT22;2391;47.212;7.542;2023-11-19T15:23:24;13.70;99.90
4755;DHT22;2391;47.212;7.542;2023-11-19T15:25:50;13.70;99.90
4755;DHT22;2391;47.212;7.542;2023-11-19T15:28:15;13.60;99.90
4755;DHT22;2391;47.212;7.542;2023-11-19T15:30:41;13.50;99.90
4755;DHT22;2391;47.212;7.542;2023-11-19T15:33:07;13.50;99.90
4755;DHT22;2391;47.212;7.542;2023-11-19T15:35:34;13.50;99.90
4755;DHT22;2391;47.212;7.542;2023-11-19T15:38:00;13.50;99.90
4755;DHT22;2391;47.212;7.542;2023-11-19T15:40:26;13.50;99.90
4755;DHT22;2391;47.212;7.542;2023-11-19T15:42:53;13.60;99.90
4755;DHT22;2391;47.212;7.542;2023-11-19T15:45:20;13.60;99.90
4755;DHT22;2391;47.212;7.542;2023-11-19T15:47:46;13.70;99.90
4755;DHT22;2391;47.212;7.542;2023-11-19T15:50:12;13.70;99.90
4755;DHT22;2391;47.212;7.542;2023-11-19T15:52:39;13.70;99.90
4755;DHT22;2391;47.212;7.542;2023-11-19T15:55:05;13.70;99.90
4755;DHT22;2391;47.212;7.542;2023-11-19T15:57:31;13.70;99.90
4755;DHT22;2391;47.212;7.542;2023-11-19T15:59:57;13.70;99.90
4755;DHT22;2391;47.212;7.542;2023-11-19T16:02:23;13.70;99.90
4755;DHT22;2391;47.212;7.542;2023-11-19T16:04:49;13.70;99.90
4755;DHT22;2391;47.212;7.542;2023-11-19T16:07:16;13.70;99.90
4755;DHT22;2391;47.212;7.542;2023-11-19T16:09:43;13.70;99.90
4755;DHT22;2391;47.212;7.542;2023-11-19T16:12:09;13.60;99.90
4755;DHT22;2391;47.212;7.542;2023-11-19T16:14:37;13.70;99.90
4755;DHT22;2391;47.212;7.542;2023-11-19T16:17:03;13.70;99.90
4755;DHT22;2391;47.212;7.542;2023-11-19T16:19:28;13.70;99.90